sensor_id;sensor_type;location;lat;lon;timestamp;P1;durP1;ratioP1;P2;durP2;ratioP2
11238;SDS011;5677;48.488;13.436;2024-01-07T00:01:07;1.50;;;1.40;;
11238;SDS011;5677;48.488;13.436;2024-01-07T00:03:35;2.40;;;1.60;;
11238;SDS011;5677;48.488;13.436;2024-01-07T00:06:01;1.80;;;1.70;;
11238;SDS011;5677;48.488;13.436;2024-01-07T00:08:28;2.33;;;1.63;;
11238;SDS011;5677;48.488;13.436;2024-01-07T00:10:55;1.70;;;1.50;;
11238;SDS011;5677;48.488;13.436;2024-01-07T00:13:22;1.60;;;1.50;;
11238;SDS011;5677;48.488;13.436;2024-01-07T00:15:50;1.73;;;1.63;;
11238;SDS011;5677;48.488;13.436;2024-01-07T00:18:18;3.50;;;1.63;;
11238;SDS011;5677;48.488;13.436;2024-01-07T00:20:45;1.90;;;1.70;;
11238;SDS011;5677;48.488;13.436;2024-01-07T00:23:12;1.80;;;1.70;;
11238;SDS011;5677;48.488;13.436;2024-01-07T00:25:39;1.77;;;1.47;;
11238;SDS011;5677;48.488;13.436;2024-01-07T00:28:05;1.97;;;1.83;;
11238;SDS011;5677;48.488;13.436;2024-01-07T00:30:32;1.90;;;1.70;;
11238;SDS011;5677;48.488;13.436;2024-01-07T00:33:00;1.90;;;1.50;;
11238;SDS011;5677;48.488;13.436;2024-01-07T00:35:27;1.50;;;1.30;;
11238;SDS011;5677;48.488;13.436;2024-01-07T00:37:54;1.60;;;1.50;;
11238;SDS011;5677;48.488;13.436;2024-01-07T00:40:21;1.60;;;1.50;;
11238;SDS011;5677;48.488;13.436;2024-01-07T00:42:48;2.00;;;1.77;;
11238;SDS011;5677;48.488;13.436;2024-01-07T00:45:16;2.00;;;1.50;;
11238;SDS011;5677;48.488;13.436;2024-01-07T00:47:43;1.73;;;1.63;;
11238;SDS011;5677;48.488;13.436;2024-01-07T00:50:11;1.60;;;1.50;;
11238;SDS011;5677;48.488;13.436;2024-01-07T00:52:38;1.60;;;1.37;;
11238;SDS011;5677;48.488;13.436;2024-01-07T00:55:07;1.87;;;1.60;;
11238;SDS011;5677;48.488;13.436;2024-01-07T00:57:34;2.03;;;1.60;;
11238;SDS011;5677;48.488;13.436;2024-01-07T01:00:04;1.37;;;1.27;;
11238;SDS011;5677;48.488;13.436;2024-01-07T01:02:31;2.30;;;1.70;;
11238;SDS011;5677;48.488;13.436;2024-01-07T01:04:58;1.63;;;1.50;;
11238;SDS011;5677;48.488;13.436;2024-01-07T01:07:26;1.50;;;1.40;;
11238;SDS011;5677;48.488;13.436;2024-01-07T01:09:53;1.77;;;1.63;;
11238;SDS011;5677;48.488;13.436;2024-01-07T01:12:20;1.57;;;1.47;;
11238;SDS011;5677;48.488;13.436;2024-01-07T01:14:46;1.43;;;1.30;;
11238;SDS011;5677;48.488;13.436;2024-01-07T01:17:13;1.80;;;1.50;;
11238;SDS011;5677;48.488;13.436;2024-01-07T01:19:40;1.47;;;1.37;;
11238;SDS011;5677;48.488;13.436;2024-01-07T01:22:07;1.40;;;1.30;;
11238;SDS011;5677;48.488;13.436;2024-01-07T01:24:35;1.47;;;1.10;;
11238;SDS011;5677;48.488;13.436;2024-01-07T01:27:01;1.33;;;1.23;;
11238;SDS011;5677;48.488;13.436;2024-01-07T01:29:28;1.70;;;1.60;;
11238;SDS011;5677;48.488;13.436;2024-01-07T01:31:55;1.60;;;1.40;;
11238;SDS011;5677;48.488;13.436;2024-01-07T01:34:22;1.80;;;1.60;;
11238;SDS011;5677;48.488;13.436;2024-01-07T01:36:49;4.30;;;1.60;;
11238;SDS011;5677;48.488;13.436;2024-01-07T01:39:16;1.40;;;1.30;;
11238;SDS011;5677;48.488;13.436;2024-01-07T01:41:44;1.33;;;1.23;;
11238;SDS011;5677;48.488;13.436;2024-01-07T01:44:11;1.33;;;1.23;;
11238;SDS011;5677;48.488;13.436;2024-01-07T01:46:38;1.87;;;1.40;;
11238;SDS011;5677;48.488;13.436;2024-01-07T01:49:05;1.40;;;1.30;;
11238;SDS011;5677;48.488;13.436;2024-01-07T01:51:32;1.70;;;1.20;;
11238;SDS011;5677;48.488;13.436;2024-01-07T01:53:59;1.33;;;1.23;;
11238;SDS011;5677;48.488;13.436;2024-01-07T01:56:27;2.00;;;1.37;;
11238;SDS011;5677;48.488;13.436;2024-01-07T01:58:56;1.47;;;1.37;;
11238;SDS011;5677;48.488;13.436;2024-01-07T02:01:24;1.17;;;1.17;;
11238;SDS011;5677;48.488;13.436;2024-01-07T02:03:51;1.40;;;1.30;;
11238;SDS011;5677;48.488;13.436;2024-01-07T02:06:18;1.47;;;1.37;;
11238;SDS011;5677;48.488;13.436;2024-01-07T02:08:46;1.30;;;1.20;;
11238;SDS011;5677;48.488;13.436;2024-01-07T02:11:17;1.23;;;1.13;;
11238;SDS011;5677;48.488;13.436;2024-01-07T02:13:45;3.00;;;1.20;;
11238;SDS011;5677;48.488;13.436;2024-01-07T02:16:13;1.67;;;1.57;;
11238;SDS011;5677;48.488;13.436;2024-01-07T02:18:41;1.07;;;1.00;;
11238;SDS011;5677;48.488;13.436;2024-01-07T02:21:09;1.50;;;1.40;;
11238;SDS011;5677;48.488;13.436;2024-01-07T02:23:36;1.57;;;1.47;;
11238;SDS011;5677;48.488;13.436;2024-01-07T02:26:04;1.63;;;1.20;;
11238;SDS011;5677;48.488;13.436;2024-01-07T02:28:32;1.37;;;1.03;;
11238;SDS011;5677;48.488;13.436;2024-01-07T02:30:59;1.30;;;1.20;;
11238;SDS011;5677;48.488;13.436;2024-01-07T02:33:25;2.47;;;1.27;;
11238;SDS011;5677;48.488;13.436;2024-01-07T02:35:53;1.47;;;1.10;;
11238;SDS011;5677;48.488;13.436;2024-01-07T02:38:19;1.50;;;1.40;;
11238;SDS011;5677;48.488;13.436;2024-01-07T02:40:46;2.17;;;1.30;;
11238;SDS011;5677;48.488;13.436;2024-01-07T02:43:14;2.00;;;1.17;;
11238;SDS011;5677;48.488;13.436;2024-01-07T02:45:41;1.40;;;1.30;;
11238;SDS011;5677;48.488;13.436;2024-01-07T02:48:08;1.23;;;1.13;;
11238;SDS011;5677;48.488;13.436;2024-01-07T02:50:34;1.90;;;1.13;;
11238;SDS011;5677;48.488;13.436;2024-01-07T02:53:01;1.30;;;1.20;;
11238;SDS011;5677;48.488;13.436;2024-01-07T02:55:28;1.63;;;1.10;;
11238;SDS011;5677;48.488;13.436;2024-01-07T02:57:55;1.63;;;1.43;;
11238;SDS011;5677;48.488;13.436;2024-01-07T03:00:23;3.33;;;1.37;;
11238;SDS011;5677;48.488;13.436;2024-01-07T03:02:49;1.47;;;1.30;;
11238;SDS011;5677;48.488;13.436;2024-01-07T03:05:16;3.30;;;1.30;;
11238;SDS011;5677;48.488;13.436;2024-01-07T03:07:43;1.23;;;1.13;;
11238;SDS011;5677;48.488;13.436;2024-01-07T03:10:10;1.40;;;1.30;;
11238;SDS011;5677;48.488;13.436;2024-01-07T03:12:36;1.40;;;1.30;;
11238;SDS011;5677;48.488;13.436;2024-01-07T03:15:04;1.10;;;1.00;;
11238;SDS011;5677;48.488;13.436;2024-01-07T03:17:35;1.30;;;1.20;;
11238;SDS011;5677;48.488;13.436;2024-01-07T03:20:01;1.00;;;1.00;;
11238;SDS011;5677;48.488;13.436;2024-01-07T03:22:29;1.50;;;1.17;;
11238;SDS011;5677;48.488;13.436;2024-01-07T03:24:55;1.20;;;1.10;;
11238;SDS011;5677;48.488;13.436;2024-01-07T03:27:22;1.23;;;1.13;;
11238;SDS011;5677;48.488;13.436;2024-01-07T03:29:49;1.30;;;1.20;;
11238;SDS011;5677;48.488;13.436;2024-01-07T03:32:16;1.30;;;1.20;;
11238;SDS011;5677;48.488;13.436;2024-01-07T03:34:45;2.80;;;1.20;;
11238;SDS011;5677;48.488;13.436;2024-01-07T03:37:11;1.27;;;1.17;;
11238;SDS011;5677;48.488;13.436;2024-01-07T03:39:38;1.93;;;1.23;;
11238;SDS011;5677;48.488;13.436;2024-01-07T03:42:05;1.30;;;1.20;;
11238;SDS011;5677;48.488;13.436;2024-01-07T03:44:36;1.60;;;1.20;;
11238;SDS011;5677;48.488;13.436;2024-01-07T03:47:03;1.27;;;1.17;;
11238;SDS011;5677;48.488;13.436;2024-01-07T03:49:30;2.23;;;1.20;;
11238;SDS011;5677;48.488;13.436;2024-01-07T03:51:58;1.47;;;1.23;;
11238;SDS011;5677;48.488;13.436;2024-01-07T03:54:24;1.20;;;1.10;;
11238;SDS011;5677;48.488;13.436;2024-01-07T03:56:51;1.27;;;1.17;;
11238;SDS011;5677;48.488;13.436;2024-01-07T03:59:18;1.30;;;1.20;;
11238;SDS011;5677;48.488;13.436;2024-01-07T04:01:45;1.00;;;1.00;;
11238;SDS011;5677;48.488;13.436;2024-01-07T04:04:11;1.37;;;1.27;;
11238;SDS011;5677;48.488;13.436;2024-01-07T04:06:39;1.30;;;1.20;;
11238;SDS011;5677;48.488;13.436;2024-01-07T04:09:07;1.37;;;1.27;;
11238;SDS011;5677;48.488;13.436;2024-01-07T04:11:38;1.63;;;1.37;;
11238;SDS011;5677;48.488;13.436;2024-01-07T04:14:06;1.23;;;1.07;;
11238;SDS011;5677;48.488;13.436;2024-01-07T04:16:33;1.13;;;1.13;;
11238;SDS011;5677;48.488;13.436;2024-01-07T04:19:00;1.20;;;1.10;;
11238;SDS011;5677;48.488;13.436;2024-01-07T04:21:26;2.20;;;1.27;;
11238;SDS011;5677;48.488;13.436;2024-01-07T04:23:53;1.70;;;1.13;;
11238;SDS011;5677;48.488;13.436;2024-01-07T04:26:21;1.30;;;1.20;;
11238;SDS011;5677;48.488;13.436;2024-01-07T04:28:48;0.80;;;0.80;;
11238;SDS011;5677;48.488;13.436;2024-01-07T04:31:15;1.40;;;1.30;;
11238;SDS011;5677;48.488;13.436;2024-01-07T04:33:41;1.40;;;1.30;;
11238;SDS011;5677;48.488;13.436;2024-01-07T04:36:08;1.80;;;1.13;;
11238;SDS011;5677;48.488;13.436;2024-01-07T04:38:35;1.40;;;1.20;;
11238;SDS011;5677;48.488;13.436;2024-01-07T04:41:02;1.00;;;1.00;;
11238;SDS011;5677;48.488;13.436;2024-01-07T04:43:33;1.40;;;1.30;;
11238;SDS011;5677;48.488;13.436;2024-01-07T04:46:00;1.30;;;1.20;;
11238;SDS011;5677;48.488;13.436;2024-01-07T04:48:27;1.10;;;1.00;;
11238;SDS011;5677;48.488;13.436;2024-01-07T04:50:53;1.27;;;0.90;;
11238;SDS011;5677;48.488;13.436;2024-01-07T04:53:20;1.00;;;1.00;;
11238;SDS011;5677;48.488;13.436;2024-01-07T04:55:47;1.03;;;1.03;;
11238;SDS011;5677;48.488;13.436;2024-01-07T04:58:13;1.20;;;1.10;;
11238;SDS011;5677;48.488;13.436;2024-01-07T05:00:42;1.27;;;1.17;;
11238;SDS011;5677;48.488;13.436;2024-01-07T05:03:08;0.93;;;0.93;;
11238;SDS011;5677;48.488;13.436;2024-01-07T05:05:35;0.83;;;0.83;;
11238;SDS011;5677;48.488;13.436;2024-01-07T05:08:03;1.00;;;0.90;;
11238;SDS011;5677;48.488;13.436;2024-01-07T05:10:30;1.13;;;0.83;;
11238;SDS011;5677;48.488;13.436;2024-01-07T05:12:57;1.20;;;1.10;;
11238;SDS011;5677;48.488;13.436;2024-01-07T05:15:24;0.90;;;0.90;;
11238;SDS011;5677;48.488;13.436;2024-01-07T05:17:52;1.83;;;1.00;;
11238;SDS011;5677;48.488;13.436;2024-01-07T05:20:18;1.23;;;1.10;;
11238;SDS011;5677;48.488;13.436;2024-01-07T05:22:45;1.80;;;1.20;;
11238;SDS011;5677;48.488;13.436;2024-01-07T05:25:12;3.70;;;2.70;;
11238;SDS011;5677;48.488;13.436;2024-01-07T05:27:39;2.40;;;1.60;;
11238;SDS011;5677;48.488;13.436;2024-01-07T05:30:06;1.87;;;1.40;;
11238;SDS011;5677;48.488;13.436;2024-01-07T05:32:33;4.03;;;2.40;;
11238;SDS011;5677;48.488;13.436;2024-01-07T05:35:02;3.90;;;2.10;;
11238;SDS011;5677;48.488;13.436;2024-01-07T05:37:29;1.80;;;1.70;;
11238;SDS011;5677;48.488;13.436;2024-01-07T05:39:55;2.70;;;1.70;;
11238;SDS011;5677;48.488;13.436;2024-01-07T05:42:22;1.80;;;1.70;;
11238;SDS011;5677;48.488;13.436;2024-01-07T05:44:49;1.90;;;1.80;;
11238;SDS011;5677;48.488;13.436;2024-01-07T05:47:16;1.90;;;1.53;;
11238;SDS011;5677;48.488;13.436;2024-01-07T05:49:43;1.60;;;1.50;;
11238;SDS011;5677;48.488;13.436;2024-01-07T05:52:11;1.70;;;1.60;;
11238;SDS011;5677;48.488;13.436;2024-01-07T05:54:38;2.00;;;1.53;;
11238;SDS011;5677;48.488;13.436;2024-01-07T05:57:04;3.20;;;1.93;;
11238;SDS011;5677;48.488;13.436;2024-01-07T05:59:31;1.50;;;1.40;;
11238;SDS011;5677;48.488;13.436;2024-01-07T06:01:58;5.37;;;1.60;;
11238;SDS011;5677;48.488;13.436;2024-01-07T06:04:25;1.67;;;1.50;;
11238;SDS011;5677;48.488;13.436;2024-01-07T06:06:52;1.60;;;1.50;;
11238;SDS011;5677;48.488;13.436;2024-01-07T06:09:20;1.30;;;1.20;;
11238;SDS011;5677;48.488;13.436;2024-01-07T06:11:46;1.43;;;1.33;;
11238;SDS011;5677;48.488;13.436;2024-01-07T06:14:13;2.00;;;1.60;;
11238;SDS011;5677;48.488;13.436;2024-01-07T06:16:40;1.70;;;1.23;;
11238;SDS011;5677;48.488;13.436;2024-01-07T06:19:08;2.83;;;1.40;;
11238;SDS011;5677;48.488;13.436;2024-01-07T06:21:34;1.57;;;1.23;;
11238;SDS011;5677;48.488;13.436;2024-01-07T06:24:01;1.47;;;1.37;;
11238;SDS011;5677;48.488;13.436;2024-01-07T06:26:29;3.33;;;1.20;;
11238;SDS011;5677;48.488;13.436;2024-01-07T06:28:56;4.97;;;1.10;;
11238;SDS011;5677;48.488;13.436;2024-01-07T06:31:23;1.13;;;1.03;;
11238;SDS011;5677;48.488;13.436;2024-01-07T06:33:50;1.20;;;1.10;;
11238;SDS011;5677;48.488;13.436;2024-01-07T06:36:17;2.37;;;2.20;;
11238;SDS011;5677;48.488;13.436;2024-01-07T06:38:43;5.03;;;4.53;;
11238;SDS011;5677;48.488;13.436;2024-01-07T06:41:11;3.10;;;2.80;;
11238;SDS011;5677;48.488;13.436;2024-01-07T06:43:39;2.20;;;2.00;;
11238;SDS011;5677;48.488;13.436;2024-01-07T06:46:06;2.07;;;1.87;;
11238;SDS011;5677;48.488;13.436;2024-01-07T06:48:33;2.30;;;2.10;;
11238;SDS011;5677;48.488;13.436;2024-01-07T06:50:59;2.27;;;2.10;;
11238;SDS011;5677;48.488;13.436;2024-01-07T06:53:26;3.77;;;2.27;;
11238;SDS011;5677;48.488;13.436;2024-01-07T06:55:53;2.17;;;2.00;;
11238;SDS011;5677;48.488;13.436;2024-01-07T06:58:20;2.40;;;2.17;;
11238;SDS011;5677;48.488;13.436;2024-01-07T07:00:48;2.23;;;1.80;;
11238;SDS011;5677;48.488;13.436;2024-01-07T07:03:15;2.30;;;2.10;;
11238;SDS011;5677;48.488;13.436;2024-01-07T07:05:42;1.93;;;1.60;;
11238;SDS011;5677;48.488;13.436;2024-01-07T07:08:09;2.23;;;2.03;;
11238;SDS011;5677;48.488;13.436;2024-01-07T07:10:36;1.93;;;1.83;;
11238;SDS011;5677;48.488;13.436;2024-01-07T07:13:02;1.93;;;1.83;;
11238;SDS011;5677;48.488;13.436;2024-01-07T07:15:29;2.50;;;1.80;;
11238;SDS011;5677;48.488;13.436;2024-01-07T07:17:57;1.77;;;1.67;;
11238;SDS011;5677;48.488;13.436;2024-01-07T07:20:24;1.73;;;1.63;;
11238;SDS011;5677;48.488;13.436;2024-01-07T07:22:51;2.73;;;1.93;;
11238;SDS011;5677;48.488;13.436;2024-01-07T07:25:18;1.90;;;1.67;;
11238;SDS011;5677;48.488;13.436;2024-01-07T07:27:44;2.03;;;1.80;;
11238;SDS011;5677;48.488;13.436;2024-01-07T07:30:11;1.60;;;1.50;;
11238;SDS011;5677;48.488;13.436;2024-01-07T07:32:39;1.53;;;1.37;;
11238;SDS011;5677;48.488;13.436;2024-01-07T07:35:08;1.80;;;1.70;;
11238;SDS011;5677;48.488;13.436;2024-01-07T07:37:35;1.73;;;1.50;;
11238;SDS011;5677;48.488;13.436;2024-01-07T07:40:01;2.67;;;1.37;;
11238;SDS011;5677;48.488;13.436;2024-01-07T07:42:28;3.03;;;1.70;;
11238;SDS011;5677;48.488;13.436;2024-01-07T07:44:55;1.27;;;1.17;;
11238;SDS011;5677;48.488;13.436;2024-01-07T07:47:22;3.63;;;1.47;;
11238;SDS011;5677;48.488;13.436;2024-01-07T07:49:49;2.33;;;1.37;;
11238;SDS011;5677;48.488;13.436;2024-01-07T07:52:17;3.90;;;1.57;;
11238;SDS011;5677;48.488;13.436;2024-01-07T07:54:47;1.40;;;1.30;;
11238;SDS011;5677;48.488;13.436;2024-01-07T07:57:14;1.40;;;1.30;;
11238;SDS011;5677;48.488;13.436;2024-01-07T07:59:41;2.80;;;1.33;;
11238;SDS011;5677;48.488;13.436;2024-01-07T08:02:08;1.30;;;1.20;;
11238;SDS011;5677;48.488;13.436;2024-01-07T08:04:34;2.67;;;1.63;;
11238;SDS011;5677;48.488;13.436;2024-01-07T08:07:01;3.17;;;1.37;;
11238;SDS011;5677;48.488;13.436;2024-01-07T08:09:30;1.60;;;1.20;;
11238;SDS011;5677;48.488;13.436;2024-01-07T08:11:56;4.00;;;1.10;;
11238;SDS011;5677;48.488;13.436;2024-01-07T08:14:23;1.97;;;1.30;;
11238;SDS011;5677;48.488;13.436;2024-01-07T08:16:50;2.10;;;1.37;;
11238;SDS011;5677;48.488;13.436;2024-01-07T08:19:17;2.20;;;1.50;;
11238;SDS011;5677;48.488;13.436;2024-01-07T08:21:44;2.63;;;1.40;;
11238;SDS011;5677;48.488;13.436;2024-01-07T08:24:11;2.47;;;1.20;;
11238;SDS011;5677;48.488;13.436;2024-01-07T08:26:39;1.53;;;1.20;;
11238;SDS011;5677;48.488;13.436;2024-01-07T08:29:06;2.70;;;1.30;;
11238;SDS011;5677;48.488;13.436;2024-01-07T08:31:32;1.20;;;1.10;;
11238;SDS011;5677;48.488;13.436;2024-01-07T08:33:59;1.53;;;1.43;;
11238;SDS011;5677;48.488;13.436;2024-01-07T08:36:26;2.47;;;1.43;;
11238;SDS011;5677;48.488;13.436;2024-01-07T08:38:53;1.77;;;1.30;;
11238;SDS011;5677;48.488;13.436;2024-01-07T08:41:20;1.53;;;1.30;;
11238;SDS011;5677;48.488;13.436;2024-01-07T08:43:48;1.83;;;1.30;;
11238;SDS011;5677;48.488;13.436;2024-01-07T08:46:14;1.30;;;1.20;;
11238;SDS011;5677;48.488;13.436;2024-01-07T08:48:41;3.23;;;3.00;;
11238;SDS011;5677;48.488;13.436;2024-01-07T08:51:08;2.20;;;1.83;;
11238;SDS011;5677;48.488;13.436;2024-01-07T08:53:35;2.80;;;2.00;;
11238;SDS011;5677;48.488;13.436;2024-01-07T08:56:01;2.70;;;1.80;;
11238;SDS011;5677;48.488;13.436;2024-01-07T08:58:28;1.90;;;1.70;;
11238;SDS011;5677;48.488;13.436;2024-01-07T09:00:56;3.30;;;1.77;;
11238;SDS011;5677;48.488;13.436;2024-01-07T09:03:23;2.87;;;1.60;;
11238;SDS011;5677;48.488;13.436;2024-01-07T09:05:50;3.87;;;1.60;;
11238;SDS011;5677;48.488;13.436;2024-01-07T09:08:16;2.50;;;1.70;;
11238;SDS011;5677;48.488;13.436;2024-01-07T09:10:43;1.63;;;1.53;;
11238;SDS011;5677;48.488;13.436;2024-01-07T09:13:10;3.00;;;1.70;;
11238;SDS011;5677;48.488;13.436;2024-01-07T09:15:37;2.63;;;1.53;;
11238;SDS011;5677;48.488;13.436;2024-01-07T09:18:05;2.07;;;1.70;;
11238;SDS011;5677;48.488;13.436;2024-01-07T09:20:32;2.53;;;1.77;;
11238;SDS011;5677;48.488;13.436;2024-01-07T09:22:59;2.10;;;1.80;;
11238;SDS011;5677;48.488;13.436;2024-01-07T09:25:26;3.43;;;2.03;;
11238;SDS011;5677;48.488;13.436;2024-01-07T09:27:54;2.80;;;1.73;;
11238;SDS011;5677;48.488;13.436;2024-01-07T09:30:21;2.43;;;1.70;;
11238;SDS011;5677;48.488;13.436;2024-01-07T09:32:47;1.70;;;1.60;;
11238;SDS011;5677;48.488;13.436;2024-01-07T09:35:16;4.60;;;1.50;;
11238;SDS011;5677;48.488;13.436;2024-01-07T09:37:43;4.07;;;1.70;;
11238;SDS011;5677;48.488;13.436;2024-01-07T09:40:10;3.47;;;1.60;;
11238;SDS011;5677;48.488;13.436;2024-01-07T09:42:38;9.87;;;2.17;;
11238;SDS011;5677;48.488;13.436;2024-01-07T09:45:05;7.50;;;2.33;;
11238;SDS011;5677;48.488;13.436;2024-01-07T09:47:32;4.90;;;2.13;;
11238;SDS011;5677;48.488;13.436;2024-01-07T09:50:01;6.07;;;1.90;;
11238;SDS011;5677;48.488;13.436;2024-01-07T09:52:29;4.50;;;1.90;;
11238;SDS011;5677;48.488;13.436;2024-01-07T09:54:57;5.20;;;2.50;;
11238;SDS011;5677;48.488;13.436;2024-01-07T09:57:25;4.50;;;1.93;;
11238;SDS011;5677;48.488;13.436;2024-01-07T09:59:52;5.07;;;1.83;;
11238;SDS011;5677;48.488;13.436;2024-01-07T10:02:19;4.33;;;2.10;;
11238;SDS011;5677;48.488;13.436;2024-01-07T10:04:47;5.07;;;1.80;;
11238;SDS011;5677;48.488;13.436;2024-01-07T10:07:14;4.20;;;2.17;;
11238;SDS011;5677;48.488;13.436;2024-01-07T10:09:43;2.17;;;1.67;;
11238;SDS011;5677;48.488;13.436;2024-01-07T10:12:10;3.10;;;2.07;;
11238;SDS011;5677;48.488;13.436;2024-01-07T10:14:38;3.07;;;2.00;;
11238;SDS011;5677;48.488;13.436;2024-01-07T10:17:13;3.73;;;1.60;;
11238;SDS011;5677;48.488;13.436;2024-01-07T10:19:42;4.30;;;1.83;;
11238;SDS011;5677;48.488;13.436;2024-01-07T10:22:11;7.07;;;1.83;;
11238;SDS011;5677;48.488;13.436;2024-01-07T10:24:39;3.27;;;2.03;;
11238;SDS011;5677;48.488;13.436;2024-01-07T10:27:09;6.77;;;2.00;;
11238;SDS011;5677;48.488;13.436;2024-01-07T10:29:37;4.60;;;1.80;;
11238;SDS011;5677;48.488;13.436;2024-01-07T10:32:04;6.80;;;1.87;;
11238;SDS011;5677;48.488;13.436;2024-01-07T10:34:31;5.30;;;1.80;;
11238;SDS011;5677;48.488;13.436;2024-01-07T10:36:59;3.23;;;2.03;;
11238;SDS011;5677;48.488;13.436;2024-01-07T10:39:27;3.33;;;1.90;;
11238;SDS011;5677;48.488;13.436;2024-01-07T10:41:55;3.30;;;1.80;;
11238;SDS011;5677;48.488;13.436;2024-01-07T10:44:25;3.40;;;1.90;;
11238;SDS011;5677;48.488;13.436;2024-01-07T10:46:53;2.13;;;1.63;;
11238;SDS011;5677;48.488;13.436;2024-01-07T10:49:21;3.40;;;2.30;;
11238;SDS011;5677;48.488;13.436;2024-01-07T10:51:50;2.60;;;2.03;;
11238;SDS011;5677;48.488;13.436;2024-01-07T10:54:28;3.40;;;2.40;;
11238;SDS011;5677;48.488;13.436;2024-01-07T10:56:57;3.43;;;2.63;;
11238;SDS011;5677;48.488;13.436;2024-01-07T10:59:27;3.93;;;2.20;;
11238;SDS011;5677;48.488;13.436;2024-01-07T11:01:55;2.27;;;2.07;;
11238;SDS011;5677;48.488;13.436;2024-01-07T11:04:23;3.00;;;2.30;;
11238;SDS011;5677;48.488;13.436;2024-01-07T11:06:57;2.87;;;2.00;;
11238;SDS011;5677;48.488;13.436;2024-01-07T11:09:31;4.00;;;1.97;;
11238;SDS011;5677;48.488;13.436;2024-01-07T11:12:03;3.23;;;2.00;;
11238;SDS011;5677;48.488;13.436;2024-01-07T11:14:35;2.03;;;1.70;;
11238;SDS011;5677;48.488;13.436;2024-01-07T11:17:04;3.53;;;1.90;;
11238;SDS011;5677;48.488;13.436;2024-01-07T11:24:42;2.87;;;2.27;;
11238;SDS011;5677;48.488;13.436;2024-01-07T11:27:09;2.57;;;2.00;;
11238;SDS011;5677;48.488;13.436;2024-01-07T11:29:37;2.90;;;2.10;;
11238;SDS011;5677;48.488;13.436;2024-01-07T11:32:04;2.40;;;2.10;;
11238;SDS011;5677;48.488;13.436;2024-01-07T11:34:38;6.97;;;2.30;;
11238;SDS011;5677;48.488;13.436;2024-01-07T11:37:06;3.03;;;1.90;;
11238;SDS011;5677;48.488;13.436;2024-01-07T11:39:36;2.13;;;1.93;;
11238;SDS011;5677;48.488;13.436;2024-01-07T11:42:03;3.03;;;2.00;;
11238;SDS011;5677;48.488;13.436;2024-01-07T11:44:32;2.20;;;1.90;;
11238;SDS011;5677;48.488;13.436;2024-01-07T11:47:02;2.67;;;2.40;;
11238;SDS011;5677;48.488;13.436;2024-01-07T11:49:29;2.63;;;2.07;;
11238;SDS011;5677;48.488;13.436;2024-01-07T11:51:55;4.27;;;2.43;;
11238;SDS011;5677;48.488;13.436;2024-01-07T11:54:22;3.03;;;2.73;;
11238;SDS011;5677;48.488;13.436;2024-01-07T11:56:49;4.27;;;3.00;;
11238;SDS011;5677;48.488;13.436;2024-01-07T11:59:16;2.63;;;2.43;;
11238;SDS011;5677;48.488;13.436;2024-01-07T12:01:43;3.60;;;2.70;;
11238;SDS011;5677;48.488;13.436;2024-01-07T12:04:11;3.17;;;2.77;;
11238;SDS011;5677;48.488;13.436;2024-01-07T12:06:38;3.03;;;2.70;;
11238;SDS011;5677;48.488;13.436;2024-01-07T12:09:05;2.53;;;2.10;;
11238;SDS011;5677;48.488;13.436;2024-01-07T12:11:32;4.80;;;2.50;;
11238;SDS011;5677;48.488;13.436;2024-01-07T12:13:58;2.53;;;2.10;;
11238;SDS011;5677;48.488;13.436;2024-01-07T12:16:26;3.60;;;2.73;;
11238;SDS011;5677;48.488;13.436;2024-01-07T12:18:52;3.60;;;2.20;;
11238;SDS011;5677;48.488;13.436;2024-01-07T12:21:21;3.17;;;1.90;;
11238;SDS011;5677;48.488;13.436;2024-01-07T12:23:48;3.90;;;2.53;;
11238;SDS011;5677;48.488;13.436;2024-01-07T12:26:16;4.97;;;2.10;;
11238;SDS011;5677;48.488;13.436;2024-01-07T12:28:44;8.37;;;2.30;;
11238;SDS011;5677;48.488;13.436;2024-01-07T12:31:11;4.47;;;2.20;;
11238;SDS011;5677;48.488;13.436;2024-01-07T12:33:38;3.57;;;2.00;;
11238;SDS011;5677;48.488;13.436;2024-01-07T12:36:06;3.60;;;2.40;;
11238;SDS011;5677;48.488;13.436;2024-01-07T12:38:36;5.87;;;2.20;;
11238;SDS011;5677;48.488;13.436;2024-01-07T12:41:03;5.17;;;2.03;;
11238;SDS011;5677;48.488;13.436;2024-01-07T12:43:30;5.33;;;1.83;;
11238;SDS011;5677;48.488;13.436;2024-01-07T12:45:57;3.30;;;2.30;;
11238;SDS011;5677;48.488;13.436;2024-01-07T12:48:29;3.10;;;1.73;;
11238;SDS011;5677;48.488;13.436;2024-01-07T12:50:56;4.23;;;2.10;;
11238;SDS011;5677;48.488;13.436;2024-01-07T12:53:22;5.27;;;1.97;;
11238;SDS011;5677;48.488;13.436;2024-01-07T12:55:52;4.80;;;2.07;;
11238;SDS011;5677;48.488;13.436;2024-01-07T12:58:19;3.40;;;1.97;;
11238;SDS011;5677;48.488;13.436;2024-01-07T13:00:46;2.37;;;1.90;;
11238;SDS011;5677;48.488;13.436;2024-01-07T13:03:13;4.17;;;2.00;;
11238;SDS011;5677;48.488;13.436;2024-01-07T13:05:42;2.27;;;1.80;;
11238;SDS011;5677;48.488;13.436;2024-01-07T13:08:10;2.60;;;1.93;;
11238;SDS011;5677;48.488;13.436;2024-01-07T13:10:38;3.77;;;2.07;;
11238;SDS011;5677;48.488;13.436;2024-01-07T13:13:06;2.33;;;1.70;;
11238;SDS011;5677;48.488;13.436;2024-01-07T13:15:34;1.70;;;1.60;;
11238;SDS011;5677;48.488;13.436;2024-01-07T13:18:01;3.43;;;1.70;;
11238;SDS011;5677;48.488;13.436;2024-01-07T13:20:28;4.40;;;2.00;;
11238;SDS011;5677;48.488;13.436;2024-01-07T13:22:55;2.60;;;2.10;;
11238;SDS011;5677;48.488;13.436;2024-01-07T13:25:22;2.53;;;1.80;;
11238;SDS011;5677;48.488;13.436;2024-01-07T13:27:48;2.20;;;1.73;;
11238;SDS011;5677;48.488;13.436;2024-01-07T13:30:17;3.37;;;1.70;;
11238;SDS011;5677;48.488;13.436;2024-01-07T13:32:44;2.23;;;1.70;;
11238;SDS011;5677;48.488;13.436;2024-01-07T13:35:11;4.33;;;2.03;;
11238;SDS011;5677;48.488;13.436;2024-01-07T13:37:38;2.50;;;2.20;;
11238;SDS011;5677;48.488;13.436;2024-01-07T13:40:07;2.43;;;2.07;;
11238;SDS011;5677;48.488;13.436;2024-01-07T13:42:36;2.67;;;2.10;;
11238;SDS011;5677;48.488;13.436;2024-01-07T13:45:03;2.23;;;2.03;;
11238;SDS011;5677;48.488;13.436;2024-01-07T13:47:32;2.43;;;1.70;;
11238;SDS011;5677;48.488;13.436;2024-01-07T13:50:00;2.20;;;2.00;;
11238;SDS011;5677;48.488;13.436;2024-01-07T13:52:28;1.80;;;1.70;;
11238;SDS011;5677;48.488;13.436;2024-01-07T13:54:55;1.60;;;1.50;;
11238;SDS011;5677;48.488;13.436;2024-01-07T13:57:22;2.93;;;1.87;;
11238;SDS011;5677;48.488;13.436;2024-01-07T13:59:49;2.47;;;1.77;;
11238;SDS011;5677;48.488;13.436;2024-01-07T14:02:15;1.70;;;1.60;;
11238;SDS011;5677;48.488;13.436;2024-01-07T14:04:45;3.50;;;1.80;;
11238;SDS011;5677;48.488;13.436;2024-01-07T14:07:13;2.27;;;1.90;;
11238;SDS011;5677;48.488;13.436;2024-01-07T14:09:40;2.57;;;1.70;;
11238;SDS011;5677;48.488;13.436;2024-01-07T14:12:07;2.13;;;1.93;;
11238;SDS011;5677;48.488;13.436;2024-01-07T14:14:34;2.13;;;1.90;;
11238;SDS011;5677;48.488;13.436;2024-01-07T14:17:01;4.70;;;2.03;;
11238;SDS011;5677;48.488;13.436;2024-01-07T14:19:27;4.90;;;2.30;;
11238;SDS011;5677;48.488;13.436;2024-01-07T14:21:55;5.80;;;2.80;;
11238;SDS011;5677;48.488;13.436;2024-01-07T14:24:22;4.63;;;2.60;;
11238;SDS011;5677;48.488;13.436;2024-01-07T14:26:49;2.30;;;2.10;;
11238;SDS011;5677;48.488;13.436;2024-01-07T14:29:15;3.07;;;2.20;;
11238;SDS011;5677;48.488;13.436;2024-01-07T14:31:42;4.40;;;2.43;;
11238;SDS011;5677;48.488;13.436;2024-01-07T14:34:10;2.20;;;2.00;;
11238;SDS011;5677;48.488;13.436;2024-01-07T14:36:39;2.43;;;2.13;;
11238;SDS011;5677;48.488;13.436;2024-01-07T14:39:09;3.27;;;2.13;;
11238;SDS011;5677;48.488;13.436;2024-01-07T14:41:38;4.33;;;2.87;;
11238;SDS011;5677;48.488;13.436;2024-01-07T14:44:05;6.40;;;2.80;;
11238;SDS011;5677;48.488;13.436;2024-01-07T14:46:32;3.57;;;2.47;;
11238;SDS011;5677;48.488;13.436;2024-01-07T14:48:58;4.90;;;2.60;;
11238;SDS011;5677;48.488;13.436;2024-01-07T14:51:25;8.63;;;2.73;;
11238;SDS011;5677;48.488;13.436;2024-01-07T14:53:52;4.57;;;2.40;;